Time;durP1;ratioP1;P1;durP2;ratioP2;P2;SDS_P1;SDS_P2;PMS_P1;PMS_P2;Temp;Humidity;BMP_temperature;BMP_pressure;BME280_temperature;BME280_humidity;BME280_pressure;Samples;Min_cycle;Max_cycle;Signal;HPM_P1;HPM_P2
2023/10/16 00:01:26;;;;;;;1999.90;999.90;;;;;;;;;;5063986;28;20198;-63
2023/10/16 00:03:55;;;;;;;1999.90;999.90;;;;;;;;;;5065930;28;20196;-66
2023/10/16 00:06:23;;;;;;;1999.90;999.90;;;;;;;;;;5065080;28;20238;-65
2023/10/16 00:08:53;;;;;;;1999.90;999.90;;;;;;;;;;5066269;28;20209;-67
2023/10/16 00:11:24;;;;;;;1999.90;999.90;;;;;;;;;;5065125;28;20628;-68
2023/10/16 00:13:51;;;;;;;1999.90;999.90;;;;;;;;;;5064706;28;20199;-67
2023/10/16 00:16:21;;;;;;;1999.90;999.90;;;;;;;;;;5065221;28;20187;-64
2023/10/16 00:18:50;;;;;;;1999.90;999.90;;;;;;;;;;5065254;28;20223;-66
2023/10/16 00:21:18;;;;;;;1999.90;999.90;;;;;;;;;;5065571;28;20571;-64
2023/10/16 00:23:46;;;;;;;1999.90;999.90;;;;;;;;;;5065282;28;20199;-65
2023/10/16 00:26:19;;;;;;;1999.90;999.90;;;;;;;;;;5065454;28;20343;-66
2023/10/16 00:29:00;;;;;;;1999.90;999.90;;;;;;;;;;5065026;28;20258;-64
2023/10/16 00:31:32;;;;;;;1999.90;999.90;;;;;;;;;;5064996;28;20218;-65
2023/10/16 00:33:59;;;;;;;1999.90;999.90;;;;;;;;;;5065446;28;20627;-65
2023/10/16 00:36:26;;;;;;;1999.90;999.90;;;;;;;;;;5064543;28;20195;-65
2023/10/16 00:38:54;;;;;;;1999.90;999.90;;;;;;;;;;5065642;28;20643;-64
2023/10/16 00:41:24;;;;;;;1999.90;999.90;;;;;;;;;;5044624;28;20198;-64
2023/10/16 00:43:52;;;;;;;1999.90;999.90;;;;;;;;;;5045942;28;20199;-66
2023/10/16 00:46:32;;;;;;;1999.90;999.90;;;;;;;;;;5044850;28;20215;-65
2023/10/16 00:49:00;;;;;;;1999.90;999.90;;;;;;;;;;5045245;28;20269;-66
2023/10/16 00:51:28;;;;;;;1999.90;999.90;;;;;;;;;;5072861;28;20193;-66
2023/10/16 00:53:55;;;;;;;1999.90;999.90;;;;;;;;;;5085342;28;20199;-64
2023/10/16 00:56:27;;;;;;;1999.90;999.90;;;;;;;;;;5085564;28;20200;-66
2023/10/16 00:58:57;;;;;;;1999.90;999.90;;;;;;;;;;5066330;28;20588;-64
2023/10/16 01:01:25;;;;;;;1999.90;999.90;;;;;;;;;;5064922;28;20219;-65
2023/10/16 01:03:57;;;;;;;1999.90;999.90;;;;;;;;;;5065449;28;20203;-65
2023/10/16 01:06:36;;;;;;;1999.90;999.90;;;;;;;;;;5064603;28;20379;-65
2023/10/16 01:09:07;;;;;;;1999.90;999.90;;;;;;;;;;5065118;28;20179;-67
2023/10/16 01:11:37;;;;;;;1999.90;999.90;;;;;;;;;;5064994;28;20194;-66
2023/10/16 01:14:06;;;;;;;1999.90;999.90;;;;;;;;;;5065720;28;20191;-67
2023/10/16 01:16:33;;;;;;;1999.90;999.90;;;;;;;;;;5065000;28;20214;-66
2023/10/16 01:19:01;;;;;;;1999.90;999.90;;;;;;;;;;5064804;28;20216;-67
2023/10/16 01:21:31;;;;;;;1999.90;999.90;;;;;;;;;;5063176;28;20779;-68
2023/10/16 01:24:03;;;;;;;1999.90;999.90;;;;;;;;;;5064889;28;20210;-66
2023/10/16 01:26:31;;;;;;;1999.90;999.90;;;;;;;;;;5064557;28;20295;-64
2023/10/16 01:28:59;;;;;;;1999.90;999.90;;;;;;;;;;5064288;28;20187;-68
2023/10/16 01:31:27;;;;;;;1999.90;999.90;;;;;;;;;;5064571;28;20631;-63
2023/10/16 01:33:55;;;;;;;1999.90;999.90;;;;;;;;;;5064803;28;20631;-67
2023/10/16 01:36:23;;;;;;;1999.90;999.90;;;;;;;;;;5064514;28;20202;-64
2023/10/16 01:38:50;;;;;;;1999.90;999.90;;;;;;;;;;5064579;28;20187;-64
2023/10/16 01:41:19;;;;;;;1999.90;999.90;;;;;;;;;;5063973;28;20191;-66
2023/10/16 01:43:46;;;;;;;1999.90;999.90;;;;;;;;;;5063381;28;20195;-64
2023/10/16 01:46:14;;;;;;;1999.90;999.90;;;;;;;;;;5063118;28;20228;-68
2023/10/16 01:48:42;;;;;;;1999.90;999.90;;;;;;;;;;5065051;28;20274;-64
2023/10/16 01:51:10;;;;;;;1999.90;999.90;;;;;;;;;;5076974;28;20198;-68
2023/10/16 01:53:39;;;;;;;1999.90;999.90;;;;;;;;;;5084382;28;20190;-67
2023/10/16 01:56:13;;;;;;;1999.90;999.90;;;;;;;;;;5085057;28;20301;-64
2023/10/16 01:58:42;;;;;;;1999.90;999.90;;;;;;;;;;5069631;28;20531;-64
2023/10/16 02:01:10;;;;;;;1999.90;999.90;;;;;;;;;;5063202;28;20651;-67
2023/10/16 02:03:38;;;;;;;1999.90;999.90;;;;;;;;;;5064651;28;20526;-68
2023/10/16 02:06:05;;;;;;;1999.90;999.90;;;;;;;;;;5068541;28;20219;-65
2023/10/16 02:08:32;;;;;;;1999.90;999.90;;;;;;;;;;5066991;28;20297;-67
2023/10/16 02:11:02;;;;;;;1999.90;999.90;;;;;;;;;;5067945;28;20808;-69
2023/10/16 02:13:30;;;;;;;1999.90;999.90;;;;;;;;;;5067621;28;20573;-65
2023/10/16 02:15:59;;;;;;;1999.90;999.90;;;;;;;;;;5067927;28;20275;-66
2023/10/16 02:18:27;;;;;;;1999.90;999.90;;;;;;;;;;5065935;28;20204;-65
2023/10/16 02:20:54;;;;;;;1999.90;999.90;;;;;;;;;;5067523;28;20249;-68
2023/10/16 02:23:22;;;;;;;1999.90;999.90;;;;;;;;;;5067944;28;20192;-64
2023/10/16 02:25:49;;;;;;;1999.90;999.90;;;;;;;;;;5067719;28;20221;-66
2023/10/16 02:28:19;;;;;;;1999.90;999.90;;;;;;;;;;5066874;28;20565;-65
2023/10/16 02:30:49;;;;;;;1999.90;999.90;;;;;;;;;;5066335;28;20238;-65
2023/10/16 02:33:23;;;;;;;1999.90;999.90;;;;;;;;;;5067166;28;20199;-65
2023/10/16 02:35:50;;;;;;;1999.90;999.90;;;;;;;;;;5068118;28;20179;-67
2023/10/16 02:38:27;;;;;;;1999.90;999.90;;;;;;;;;;5066328;28;20207;-64
2023/10/16 02:41:00;;;;;;;1999.90;999.90;;;;;;;;;;5067794;28;20233;-64
2023/10/16 02:43:27;;;;;;;1999.90;999.90;;;;;;;;;;5067272;28;20237;-68
2023/10/16 02:45:55;;;;;;;1999.90;999.90;;;;;;;;;;5067415;28;20196;-67
2023/10/16 02:48:24;;;;;;;1999.90;999.90;;;;;;;;;;5066558;28;20220;-63
2023/10/16 02:50:54;;;;;;;1999.90;999.90;;;;;;;;;;5076011;28;20202;-64
2023/10/16 02:53:25;;;;;;;1999.90;999.90;;;;;;;;;;5051721;28;20215;-65
2023/10/16 02:55:57;;;;;;;1999.90;999.90;;;;;;;;;;5046983;28;20729;-66
2023/10/16 02:58:25;;;;;;;1999.90;999.90;;;;;;;;;;5041942;28;20215;-65
2023/10/16 03:00:55;;;;;;;1999.90;999.90;;;;;;;;;;5067304;28;20382;-65
2023/10/16 03:03:26;;;;;;;1999.90;999.90;;;;;;;;;;5066667;28;20188;-66
2023/10/16 03:05:56;;;;;;;1999.90;999.90;;;;;;;;;;5067268;28;20700;-64
2023/10/16 03:08:29;;;;;;;1999.90;999.90;;;;;;;;;;5065824;28;20717;-66
2023/10/16 03:10:57;;;;;;;1999.90;999.90;;;;;;;;;;5067529;28;20184;-64
2023/10/16 03:13:24;;;;;;;1999.90;999.90;;;;;;;;;;5066094;28;20200;-64
2023/10/16 03:15:59;;;;;;;1999.90;999.90;;;;;;;;;;5066830;28;20199;-65
2023/10/16 03:18:29;;;;;;;1999.90;999.90;;;;;;;;;;5065978;28;20171;-64
2023/10/16 03:21:07;;;;;;;1999.90;999.90;;;;;;;;;;5066888;28;20176;-67
2023/10/16 03:23:35;;;;;;;1999.90;999.90;;;;;;;;;;5066704;28;20642;-65
2023/10/16 03:26:02;;;;;;;1999.90;999.90;;;;;;;;;;5066205;28;20195;-67
2023/10/16 03:28:30;;;;;;;1999.90;999.90;;;;;;;;;;5065959;28;20215;-66
2023/10/16 03:31:02;;;;;;;1999.90;999.90;;;;;;;;;;5066120;28;20241;-66
2023/10/16 03:33:32;;;;;;;1999.90;999.90;;;;;;;;;;5065426;28;20188;-70
2023/10/16 03:36:02;;;;;;;1999.90;999.90;;;;;;;;;;5065812;28;20198;-66
2023/10/16 03:38:36;;;;;;;1999.90;999.90;;;;;;;;;;5064813;28;20308;-64
2023/10/16 03:41:11;;;;;;;1999.90;999.90;;;;;;;;;;5064586;28;20210;-67
2023/10/16 03:43:42;;;;;;;1999.90;999.90;;;;;;;;;;5063110;28;20201;-65
2023/10/16 03:46:10;;;;;;;1999.90;999.90;;;;;;;;;;5065746;28;20646;-65
2023/10/16 03:48:39;;;;;;;1999.90;999.90;;;;;;;;;;5064912;28;20570;-69
2023/10/16 03:51:07;;;;;;;1999.90;999.90;;;;;;;;;;5065317;28;20191;-68
2023/10/16 03:53:35;;;;;;;1999.90;999.90;;;;;;;;;;5063836;28;20191;-66
2023/10/16 03:56:03;;;;;;;1999.90;999.90;;;;;;;;;;5064953;28;20187;-68
2023/10/16 03:58:33;;;;;;;1999.90;999.90;;;;;;;;;;5064631;28;20203;-65
2023/10/16 04:01:07;;;;;;;1999.90;999.90;;;;;;;;;;5064287;28;20707;-65
2023/10/16 04:03:46;;;;;;;1999.90;999.90;;;;;;;;;;5062597;28;20190;-65
2023/10/16 04:06:19;;;;;;;1999.90;999.90;;;;;;;;;;5060135;28;20183;-66
2023/10/16 04:08:47;;;;;;;1999.90;999.90;;;;;;;;;;5064536;28;20206;-65
2023/10/16 04:11:14;;;;;;;1999.90;999.90;;;;;;;;;;5062750;28;20194;-65
2023/10/16 04:13:47;;;;;;;1999.90;999.90;;;;;;;;;;5064491;28;20192;-66
2023/10/16 04:16:30;;;;;;;1999.90;999.90;;;;;;;;;;5062803;28;20179;-66
2023/10/16 04:19:07;;;;;;;1999.90;999.90;;;;;;;;;;5062777;28;20188;-66
2023/10/16 04:21:40;;;;;;;1999.90;999.90;;;;;;;;;;5061873;28;20206;-65
2023/10/16 04:24:30;;;;;;;1999.90;999.90;;;;;;;;;;5065318;28;20607;-68
2023/10/16 04:26:57;;;;;;;1999.90;999.90;;;;;;;;;;5061734;28;20224;-69
2023/10/16 04:29:34;;;;;;;1999.90;999.90;;;;;;;;;;5064698;28;20196;-68
2023/10/16 04:32:07;;;;;;;1999.90;999.90;;;;;;;;;;5063156;28;20229;-64
2023/10/16 04:34:39;;;;;;;1999.90;999.90;;;;;;;;;;5061729;28;20222;-67
2023/10/16 04:43:07;;;;;;;1999.90;999.90;;;;;;;;;;5054223;28;20191;-68
2023/10/16 04:45:39;;;;;;;1999.90;999.90;;;;;;;;;;5062128;28;20265;-68
2023/10/16 04:48:39;;;;;;;1999.90;999.90;;;;;;;;;;5064555;28;20203;-66
2023/10/16 04:51:17;;;;;;;1999.90;999.90;;;;;;;;;;5077199;28;20195;-67
2023/10/16 04:53:58;;;;;;;1999.90;999.90;;;;;;;;;;5067673;28;20589;-67
2023/10/16 04:56:45;;;;;;;1999.90;999.90;;;;;;;;;;5065245;28;20191;-67
2023/10/16 04:59:36;;;;;;;1999.90;999.90;;;;;;;;;;5065156;28;20220;-67
2023/10/16 05:02:16;;;;;;;1999.90;999.90;;;;;;;;;;5064932;28;20207;-67
2023/10/16 05:05:32;;;;;;;1999.90;999.90;;;;;;;;;;5064760;28;20287;-68
2023/10/16 05:07:53;;;;;;;1999.90;999.90;;;;;;;;;;5064709;28;20239;-65
2023/10/16 05:13:39;;;;;;;1999.90;999.90;;;;;;;;;;5064956;28;20542;-67
2023/10/16 05:19:03;;;;;;;1999.90;999.90;;;;;;;;;;5064342;28;20278;-65
2023/10/16 05:22:02;;;;;;;1999.90;999.90;;;;;;;;;;5065225;28;20663;-67
2023/10/16 06:14:12;;;;;;;1999.90;999.90;;;;;;;;;;5067595;28;20214;-66
2023/10/16 06:16:41;;;;;;;1999.90;999.90;;;;;;;;;;5068339;28;20239;-65
2023/10/16 06:19:14;;;;;;;1999.90;999.90;;;;;;;;;;5067227;28;20200;-64
2023/10/16 06:21:46;;;;;;;1999.90;999.90;;;;;;;;;;5066561;28;20231;-65
2023/10/16 06:24:25;;;;;;;1999.90;999.90;;;;;;;;;;5066312;28;20200;-65
2023/10/16 06:26:53;;;;;;;1999.90;999.90;;;;;;;;;;5066001;28;20980;-65
2023/10/16 06:29:20;;;;;;;1999.90;999.90;;;;;;;;;;5067390;28;20191;-66
2023/10/16 06:31:58;;;;;;;1999.90;999.90;;;;;;;;;;5067409;28;20308;-64
2023/10/16 06:34:26;;;;;;;1999.90;999.90;;;;;;;;;;5067961;28;20187;-65
2023/10/16 06:36:53;;;;;;;1999.90;999.90;;;;;;;;;;5067570;28;20196;-64
2023/10/16 06:39:29;;;;;;;1999.90;999.90;;;;;;;;;;5067514;28;20281;-68
2023/10/16 06:41:57;;;;;;;1999.90;999.90;;;;;;;;;;5067036;28;20183;-65
2023/10/16 06:44:29;;;;;;;1999.90;999.90;;;;;;;;;;5067091;28;20224;-65
2023/10/16 06:46:59;;;;;;;1999.90;999.90;;;;;;;;;;5067255;28;20187;-64
2023/10/16 06:49:27;;;;;;;1999.90;999.90;;;;;;;;;;5065887;28;20215;-64
2023/10/16 06:51:57;;;;;;;1999.90;999.90;;;;;;;;;;5085938;28;20640;-64
2023/10/16 06:54:26;;;;;;;1999.90;999.90;;;;;;;;;;5086996;28;20199;-69
2023/10/16 06:56:53;;;;;;;1999.90;999.90;;;;;;;;;;5086800;28;20590;-64
2023/10/16 06:59:21;;;;;;;1999.90;999.90;;;;;;;;;;5066946;28;20289;-65
2023/10/16 07:01:50;;;;;;;1999.90;999.90;;;;;;;;;;5065215;28;20660;-67
2023/10/16 07:04:20;;;;;;;1999.90;999.90;;;;;;;;;;5066849;28;20197;-64
2023/10/16 07:06:48;;;;;;;1999.90;999.90;;;;;;;;;;5066704;28;20234;-65
2023/10/16 07:09:17;;;;;;;1999.90;999.90;;;;;;;;;;5066965;28;20213;-65
2023/10/16 07:11:44;;;;;;;1999.90;999.90;;;;;;;;;;5066785;28;20196;-65
2023/10/16 07:14:17;;;;;;;1999.90;999.90;;;;;;;;;;5066535;28;20329;-65
2023/10/16 07:16:44;;;;;;;1999.90;999.90;;;;;;;;;;5066705;28;20642;-66
2023/10/16 07:19:16;;;;;;;1999.90;999.90;;;;;;;;;;5065526;28;20200;-66
2023/10/16 07:21:49;;;;;;;1999.90;999.90;;;;;;;;;;5067286;28;20690;-65
2023/10/16 07:24:16;;;;;;;1999.90;999.90;;;;;;;;;;5065797;28;20183;-65
2023/10/16 07:26:45;;;;;;;1999.90;999.90;;;;;;;;;;5066248;28;20716;-66
2023/10/16 07:29:13;;;;;;;1999.90;999.90;;;;;;;;;;5064686;28;20953;-67
2023/10/16 07:31:40;;;;;;;1999.90;999.90;;;;;;;;;;5065570;28;20240;-65
2023/10/16 07:34:08;;;;;;;1999.90;999.90;;;;;;;;;;5064610;28;20204;-65
2023/10/16 07:36:36;;;;;;;1999.90;999.90;;;;;;;;;;5064143;28;20625;-67
2023/10/16 07:39:05;;;;;;;1999.90;999.90;;;;;;;;;;5065314;28;20219;-65
2023/10/16 07:41:33;;;;;;;1999.90;999.90;;;;;;;;;;5065556;28;20198;-66
2023/10/16 07:44:04;;;;;;;1999.90;999.90;;;;;;;;;;5065606;28;20194;-65
2023/10/16 07:46:32;;;;;;;1999.90;999.90;;;;;;;;;;5065756;28;20195;-69
2023/10/16 07:49:09;;;;;;;1999.90;999.90;;;;;;;;;;5063340;28;20226;-69
2023/10/16 07:51:39;;;;;;;1999.90;999.90;;;;;;;;;;5063753;28;20280;-66
2023/10/16 07:54:10;;;;;;;1999.90;999.90;;;;;;;;;;5062519;28;20244;-66
2023/10/16 07:56:38;;;;;;;1999.90;999.90;;;;;;;;;;5065631;28;20190;-66
2023/10/16 07:59:09;;;;;;;1999.90;999.90;;;;;;;;;;5063060;28;20190;-65
2023/10/16 08:04:35;;;;;;;1999.90;999.90;;;;;;;;;;5059022;28;20742;-66
2023/10/16 08:07:05;;;;;;;1999.90;999.90;;;;;;;;;;5062781;28;20583;-66
2023/10/16 08:09:48;;;;;;;1999.90;999.90;;;;;;;;;;5066090;28;20214;-65
2023/10/16 08:14:59;;;;;;;1999.90;999.90;;;;;;;;;;5083861;28;20197;-66
2023/10/16 08:17:28;;;;;;;1999.90;999.90;;;;;;;;;;5085186;28;20236;-67
2023/10/16 08:19:55;;;;;;;1999.90;999.90;;;;;;;;;;5085405;28;20190;-68
2023/10/16 08:22:25;;;;;;;1999.90;999.90;;;;;;;;;;5086031;28;20277;-67
2023/10/16 08:25:00;;;;;;;1999.90;999.90;;;;;;;;;;5085821;28;20232;-67
2023/10/16 08:27:47;;;;;;;1999.90;999.90;;;;;;;;;;5085625;28;20197;-66
2023/10/16 08:30:34;;;;;;;1999.90;999.90;;;;;;;;;;5085191;28;20191;-66
2023/10/16 08:33:11;;;;;;;1999.90;999.90;;;;;;;;;;5085465;28;20220;-69
2023/10/16 08:35:39;;;;;;;1999.90;999.90;;;;;;;;;;5073835;28;20187;-67
2023/10/16 08:38:13;;;;;;;1999.90;999.90;;;;;;;;;;5064500;28;20206;-67
2023/10/16 08:40:46;;;;;;;1999.90;999.90;;;;;;;;;;5064367;28;20221;-69
2023/10/16 08:43:18;;;;;;;1999.90;999.90;;;;;;;;;;5065076;28;20206;-66
2023/10/16 08:45:49;;;;;;;1999.90;999.90;;;;;;;;;;5063720;28;20607;-66
2023/10/16 08:48:18;;;;;;;1999.90;999.90;;;;;;;;;;5063601;28;20309;-67
2023/10/16 08:50:57;;;;;;;1999.90;999.90;;;;;;;;;;5074093;28;20199;-66
2023/10/16 08:53:34;;;;;;;1999.90;999.90;;;;;;;;;;5085648;28;20177;-69
2023/10/16 08:56:07;;;;;;;1999.90;999.90;;;;;;;;;;5081357;28;20187;-68
2023/10/16 08:58:36;;;;;;;1999.90;999.90;;;;;;;;;;5064781;28;20196;-68
2023/10/16 09:01:07;;;;;;;1999.90;999.90;;;;;;;;;;5064825;28;20553;-67
2023/10/16 09:03:36;;;;;;;1999.90;999.90;;;;;;;;;;5064906;28;20543;-68
2023/10/16 09:06:04;;;;;;;1999.90;999.90;;;;;;;;;;5065111;28;20217;-67
2023/10/16 09:08:34;;;;;;;1999.90;999.90;;;;;;;;;;5062712;28;20242;-67
2023/10/16 09:11:06;;;;;;;1999.90;999.90;;;;;;;;;;5065142;28;20553;-67
2023/10/16 09:13:36;;;;;;;1999.90;999.90;;;;;;;;;;5067563;28;20192;-67
2023/10/16 09:16:07;;;;;;;1999.90;999.90;;;;;;;;;;5068526;28;20657;-68
2023/10/16 09:18:36;;;;;;;1999.90;999.90;;;;;;;;;;5068862;28;20656;-68
2023/10/16 09:21:13;;;;;;;1999.90;999.90;;;;;;;;;;5068524;28;20205;-66
2023/10/16 09:23:42;;;;;;;1999.90;999.90;;;;;;;;;;5068092;28;20201;-66
2023/10/16 09:26:16;;;;;;;1999.90;999.90;;;;;;;;;;5068296;28;20191;-68
2023/10/16 09:28:44;;;;;;;1999.90;999.90;;;;;;;;;;5068703;28;20729;-67
2023/10/16 09:31:17;;;;;;;1999.90;999.90;;;;;;;;;;5066194;28;20791;-65
2023/10/16 09:33:45;;;;;;;1999.90;999.90;;;;;;;;;;5068779;28;20183;-63
2023/10/16 09:36:21;;;;;;;1999.90;999.90;;;;;;;;;;5069977;28;20481;-67
2023/10/16 09:38:51;;;;;;;1999.90;999.90;;;;;;;;;;5067964;28;20197;-65
2023/10/16 09:41:39;;;;;;;1999.90;999.90;;;;;;;;;;5068381;28;20187;-67
2023/10/16 09:44:09;;;;;;;1999.90;999.90;;;;;;;;;;5066553;28;20237;-65
2023/10/16 09:46:56;;;;;;;1999.90;999.90;;;;;;;;;;5068519;28;20198;-64
2023/10/16 09:49:24;;;;;;;1999.90;999.90;;;;;;;;;;5068287;28;20295;-66
2023/10/16 09:51:57;;;;;;;1999.90;999.90;;;;;;;;;;5086590;28;20209;-69
2023/10/16 09:54:26;;;;;;;1999.90;999.90;;;;;;;;;;5088250;28;20375;-68
2023/10/16 09:56:59;;;;;;;1999.90;999.90;;;;;;;;;;5087869;28;20196;-69
2023/10/16 09:59:31;;;;;;;1999.90;999.90;;;;;;;;;;5067272;28;20190;-70
2023/10/16 10:02:05;;;;;;;1999.90;999.90;;;;;;;;;;5068624;28;20194;-64
2023/10/16 10:04:35;;;;;;;1999.90;999.90;;;;;;;;;;5068114;28;20236;-66
2023/10/16 10:07:11;;;;;;;1999.90;999.90;;;;;;;;;;5068456;28;20202;-69
2023/10/16 10:09:42;;;;;;;1999.90;999.90;;;;;;;;;;5068043;28;20203;-70
2023/10/16 10:12:22;;;;;;;1999.90;999.90;;;;;;;;;;5066068;28;20609;-68
2023/10/16 10:15:01;;;;;;;1999.90;999.90;;;;;;;;;;5068168;28;20290;-66
2023/10/16 10:17:29;;;;;;;1999.90;999.90;;;;;;;;;;5067557;28;20230;-66
2023/10/16 10:19:58;;;;;;;1999.90;999.90;;;;;;;;;;5068198;28;20650;-65
2023/10/16 10:22:35;;;;;;;1999.90;999.90;;;;;;;;;;5067045;28;20253;-66
2023/10/16 10:25:11;;;;;;;1999.90;999.90;;;;;;;;;;5064647;28;20240;-68
2023/10/16 10:27:45;;;;;;;1999.90;999.90;;;;;;;;;;5066815;28;20252;-68
2023/10/16 10:30:17;;;;;;;1999.90;999.90;;;;;;;;;;5066114;28;20209;-66
2023/10/16 10:32:45;;;;;;;1999.90;999.90;;;;;;;;;;5064979;28;20290;-66
2023/10/16 10:35:26;;;;;;;1999.90;999.90;;;;;;;;;;5065721;28;20199;-65
2023/10/16 10:38:07;;;;;;;1999.90;999.90;;;;;;;;;;5066122;28;20666;-65
2023/10/16 10:40:35;;;;;;;1999.90;999.90;;;;;;;;;;5065349;28;20248;-69
2023/10/16 10:43:07;;;;;;;1999.90;999.90;;;;;;;;;;5063377;28;20235;-69
2023/10/16 10:45:35;;;;;;;1999.90;999.90;;;;;;;;;;5066590;28;20694;-70
2023/10/16 10:48:09;;;;;;;1999.90;999.90;;;;;;;;;;5066166;28;20801;-67
2023/10/16 10:50:38;;;;;;;1999.90;999.90;;;;;;;;;;5068723;28;20751;-70
2023/10/16 10:53:13;;;;;;;1999.90;999.90;;;;;;;;;;5066515;28;20986;-66
2023/10/16 10:55:53;;;;;;;1999.90;999.90;;;;;;;;;;5064599;28;20200;-66
2023/10/16 10:58:24;;;;;;;1999.90;999.90;;;;;;;;;;5065403;28;20203;-67
2023/10/16 11:01:00;;;;;;;1999.90;999.90;;;;;;;;;;5066349;28;20189;-67
2023/10/16 11:03:33;;;;;;;1999.90;999.90;;;;;;;;;;5066746;28;20538;-66
2023/10/16 11:06:00;;;;;;;1999.90;999.90;;;;;;;;;;5066984;28;20598;-66
2023/10/16 11:08:33;;;;;;;1999.90;999.90;;;;;;;;;;5066163;28;20222;-66
2023/10/16 11:11:03;;;;;;;1999.90;999.90;;;;;;;;;;5066550;28;20202;-65
2023/10/16 11:13:32;;;;;;;1999.90;999.90;;;;;;;;;;5066161;28;20259;-66
2023/10/16 11:16:00;;;;;;;1999.90;999.90;;;;;;;;;;5067370;28;20214;-70
2023/10/16 11:18:28;;;;;;;1999.90;999.90;;;;;;;;;;5065661;28;20375;-72
2023/10/16 11:20:59;;;;;;;1999.90;999.90;;;;;;;;;;5065876;28;20198;-68
2023/10/16 11:23:31;;;;;;;1999.90;999.90;;;;;;;;;;5064401;28;20249;-69
2023/10/16 11:25:58;;;;;;;1999.90;999.90;;;;;;;;;;5066391;28;20181;-69
2023/10/16 11:28:31;;;;;;;1999.90;999.90;;;;;;;;;;5065750;28;20214;-69
2023/10/16 11:31:02;;;;;;;1999.90;999.90;;;;;;;;;;5064667;28;20237;-65
2023/10/16 11:33:43;;;;;;;1999.90;999.90;;;;;;;;;;5063920;28;20207;-68
2023/10/16 11:36:13;;;;;;;1999.90;999.90;;;;;;;;;;5065751;28;20273;-66
2023/10/16 11:38:41;;;;;;;1999.90;999.90;;;;;;;;;;5065424;28;20237;-66
2023/10/16 11:41:16;;;;;;;1999.90;999.90;;;;;;;;;;5065018;28;20206;-68
2023/10/16 11:43:51;;;;;;;1999.90;999.90;;;;;;;;;;5065386;28;20188;-67
2023/10/16 11:46:29;;;;;;;1999.90;999.90;;;;;;;;;;5065670;28;20637;-69
2023/10/16 11:49:17;;;;;;;1999.90;999.90;;;;;;;;;;5065860;28;20221;-65
2023/10/16 11:51:45;;;;;;;1999.90;999.90;;;;;;;;;;5076178;28;20206;-64
2023/10/16 11:54:18;;;;;;;1999.90;999.90;;;;;;;;;;5065138;28;20209;-66
2023/10/16 11:56:47;;;;;;;1999.90;999.90;;;;;;;;;;5065571;28;20185;-66
2023/10/16 11:59:15;;;;;;;1999.90;999.90;;;;;;;;;;5063586;28;20733;-66
2023/10/16 12:01:45;;;;;;;1999.90;999.90;;;;;;;;;;5065088;28;20191;-65
2023/10/16 12:04:16;;;;;;;1999.90;999.90;;;;;;;;;;5065871;28;20716;-65
2023/10/16 12:06:45;;;;;;;1999.90;999.90;;;;;;;;;;5065706;28;20278;-64
2023/10/16 12:09:19;;;;;;;1999.90;999.90;;;;;;;;;;5063583;28;20346;-68
2023/10/16 12:11:46;;;;;;;1999.90;999.90;;;;;;;;;;5065406;28;20203;-66
2023/10/16 12:14:14;;;;;;;1999.90;999.90;;;;;;;;;;5065361;28;20199;-69
2023/10/16 12:16:45;;;;;;;1999.90;999.90;;;;;;;;;;5064316;28;20230;-65
2023/10/16 12:19:12;;;;;;;1999.90;999.90;;;;;;;;;;5063865;28;20199;-64
2023/10/16 12:21:40;;;;;;;1999.90;999.90;;;;;;;;;;5065238;28;20191;-63
2023/10/16 12:24:07;;;;;;;1999.90;999.90;;;;;;;;;;5065404;28;20219;-64
2023/10/16 12:26:35;;;;;;;1999.90;999.90;;;;;;;;;;5065100;28;20691;-65
2023/10/16 12:29:02;;;;;;;1999.90;999.90;;;;;;;;;;5065270;28;20249;-67
2023/10/16 12:31:30;;;;;;;1999.90;999.90;;;;;;;;;;5064113;28;20543;-69
2023/10/16 12:33:59;;;;;;;1999.90;999.90;;;;;;;;;;5065198;28;20195;-64
2023/10/16 12:36:29;;;;;;;1999.90;999.90;;;;;;;;;;5064703;28;20194;-66
2023/10/16 12:38:56;;;;;;;1999.90;999.90;;;;;;;;;;5065750;28;20270;-68
2023/10/16 12:41:23;;;;;;;1999.90;999.90;;;;;;;;;;5064385;28;20203;-66
2023/10/16 12:43:51;;;;;;;1999.90;999.90;;;;;;;;;;5064290;28;20198;-66
2023/10/16 12:46:18;;;;;;;1999.90;999.90;;;;;;;;;;5065374;28;20193;-67
2023/10/16 12:48:46;;;;;;;1999.90;999.90;;;;;;;;;;5063913;28;20273;-65
2023/10/16 12:51:15;;;;;;;1999.90;999.90;;;;;;;;;;5076354;28;20214;-66
2023/10/16 12:53:43;;;;;;;1999.90;999.90;;;;;;;;;;5084425;28;20217;-66
2023/10/16 12:56:12;;;;;;;1999.90;999.90;;;;;;;;;;5085379;28;20225;-64
2023/10/16 12:58:39;;;;;;;1999.90;999.90;;;;;;;;;;5069421;28;20286;-64
2023/10/16 13:01:10;;;;;;;1999.90;999.90;;;;;;;;;;5064379;28;20195;-65
2023/10/16 13:03:37;;;;;;;1999.90;999.90;;;;;;;;;;5064650;28;20248;-65
2023/10/16 13:06:06;;;;;;;1999.90;999.90;;;;;;;;;;5064855;28;20202;-69
2023/10/16 13:08:35;;;;;;;1999.90;999.90;;;;;;;;;;5064775;28;20202;-65
2023/10/16 13:11:03;;;;;;;1999.90;999.90;;;;;;;;;;5064316;28;20722;-65
2023/10/16 13:13:30;;;;;;;1999.90;999.90;;;;;;;;;;5064895;28;20190;-66
2023/10/16 13:15:58;;;;;;;1999.90;999.90;;;;;;;;;;5064972;28;21070;-66
2023/10/16 13:18:28;;;;;;;1999.90;999.90;;;;;;;;;;5065065;28;20210;-65
2023/10/16 13:21:04;;;;;;;1999.90;999.90;;;;;;;;;;5064397;28;20537;-68
2023/10/16 13:23:36;;;;;;;1999.90;999.90;;;;;;;;;;5064712;28;20551;-68
2023/10/16 13:26:08;;;;;;;1999.90;999.90;;;;;;;;;;5065311;28;20190;-65
2023/10/16 13:28:41;;;;;;;1999.90;999.90;;;;;;;;;;5063115;28;20667;-67
2023/10/16 13:31:08;;;;;;;1999.90;999.90;;;;;;;;;;5064307;28;20309;-66
2023/10/16 13:33:40;;;;;;;1999.90;999.90;;;;;;;;;;5064288;28;20498;-67
2023/10/16 13:36:11;;;;;;;1999.90;999.90;;;;;;;;;;5065144;28;20188;-67
2023/10/16 13:38:39;;;;;;;1999.90;999.90;;;;;;;;;;5064955;28;20294;-67
2023/10/16 13:41:17;;;;;;;1999.90;999.90;;;;;;;;;;5064480;28;20811;-65
2023/10/16 13:43:45;;;;;;;1999.90;999.90;;;;;;;;;;5065321;28;20189;-65
2023/10/16 13:46:13;;;;;;;1999.90;999.90;;;;;;;;;;5064882;28;21164;-66
2023/10/16 13:48:45;;;;;;;1999.90;999.90;;;;;;;;;;5064479;28;20196;-68
2023/10/16 13:51:14;;;;;;;1999.90;999.90;;;;;;;;;;5072480;28;20274;-68
2023/10/16 13:53:42;;;;;;;1999.90;999.90;;;;;;;;;;5062464;28;20696;-65
2023/10/16 13:56:11;;;;;;;1999.90;999.90;;;;;;;;;;5064524;28;20194;-66
2023/10/16 13:58:38;;;;;;;1999.90;999.90;;;;;;;;;;5064549;28;20519;-67
2023/10/16 14:01:06;;;;;;;1999.90;999.90;;;;;;;;;;5067500;28;20240;-65
2023/10/16 14:03:34;;;;;;;1999.90;999.90;;;;;;;;;;5067039;28;20681;-69
2023/10/16 14:06:01;;;;;;;1999.90;999.90;;;;;;;;;;5067328;28;20649;-66
2023/10/16 14:08:36;;;;;;;1999.90;999.90;;;;;;;;;;5065909;28;20213;-67
2023/10/16 14:11:03;;;;;;;1999.90;999.90;;;;;;;;;;5067749;28;20252;-66
2023/10/16 14:13:37;;;;;;;1999.90;999.90;;;;;;;;;;5064109;28;20562;-65
2023/10/16 14:16:09;;;;;;;1999.90;999.90;;;;;;;;;;5067449;28;20183;-65
2023/10/16 14:18:38;;;;;;;1999.90;999.90;;;;;;;;;;5067049;28;20271;-66
2023/10/16 14:21:10;;;;;;;1999.90;999.90;;;;;;;;;;5066892;28;20199;-66
2023/10/16 14:23:38;;;;;;;1999.90;999.90;;;;;;;;;;5067102;28;20661;-65
2023/10/16 14:26:11;;;;;;;1999.90;999.90;;;;;;;;;;5067717;28;20230;-65
2023/10/16 14:28:44;;;;;;;1999.90;999.90;;;;;;;;;;5066856;28;20262;-68
2023/10/16 14:31:14;;;;;;;1999.90;999.90;;;;;;;;;;5064670;28;20697;-68
2023/10/16 14:33:41;;;;;;;1999.90;999.90;;;;;;;;;;5066871;28;20187;-67
2023/10/16 14:36:10;;;;;;;1999.90;999.90;;;;;;;;;;5066989;28;20198;-65
2023/10/16 14:38:38;;;;;;;1999.90;999.90;;;;;;;;;;5066938;28;20193;-66
2023/10/16 14:41:06;;;;;;;1999.90;999.90;;;;;;;;;;5067119;28;20195;-64
2023/10/16 14:43:34;;;;;;;1999.90;999.90;;;;;;;;;;5067597;28;20281;-65
2023/10/16 14:46:03;;;;;;;1999.90;999.90;;;;;;;;;;5067875;28;20191;-64
2023/10/16 14:48:32;;;;;;;1999.90;999.90;;;;;;;;;;5065868;28;20198;-65
2023/10/16 14:51:00;;;;;;;1999.90;999.90;;;;;;;;;;5076809;28;20221;-64
2023/10/16 14:53:29;;;;;;;1999.90;999.90;;;;;;;;;;5086804;28;20861;-68
2023/10/16 14:55:56;;;;;;;1999.90;999.90;;;;;;;;;;5086229;28;20194;-68
2023/10/16 14:58:24;;;;;;;1999.90;999.90;;;;;;;;;;5073247;28;20199;-64
2023/10/16 15:00:56;;;;;;;1999.90;999.90;;;;;;;;;;5066488;28;20658;-68
2023/10/16 15:03:25;;;;;;;1999.90;999.90;;;;;;;;;;5066422;28;20193;-68
2023/10/16 15:05:53;;;;;;;1999.90;999.90;;;;;;;;;;5066764;28;20225;-66
2023/10/16 15:08:20;;;;;;;1999.90;999.90;;;;;;;;;;5065706;28;20233;-65
2023/10/16 15:10:49;;;;;;;1999.90;999.90;;;;;;;;;;5063083;28;20787;-70